createdAt,value
2019-05-03T00:00:14.073Z,99534.62
2019-05-03T00:03:02.083Z,99532.54
2019-05-03T00:05:56.314Z,99537.91
2019-05-03T00:08:25.661Z,99538.36
2019-05-03T00:10:54.783Z,99541.27
2019-05-03T00:13:24.035Z,99531.19
2019-05-03T00:16:12.301Z,99535.95
2019-05-03T00:18:42.242Z,99535.06
2019-05-03T00:21:11.733Z,99537.91
2019-05-03T00:23:41.771Z,99536.80
2019-05-03T00:26:12.012Z,99534.71
2019-05-03T00:28:42.659Z,99542.00
2019-05-03T00:31:12.441Z,99539.41
2019-05-03T00:33:43.370Z,99540.14
2019-05-03T00:36:18.755Z,99538.08
2019-05-03T00:38:48.370Z,99537.47
2019-05-03T00:41:17.664Z,99541.78
2019-05-03T00:43:46.871Z,99531.04
2019-05-03T00:46:15.966Z,99531.36
2019-05-03T00:48:45.226Z,99533.16
2019-05-03T00:51:14.462Z,99531.13
2019-05-03T00:53:43.704Z,99531.04
2019-05-03T00:56:12.813Z,99531.25
2019-05-03T00:58:55.634Z,99526.44
2019-05-03T01:01:25.059Z,99526.11
2019-05-03T01:03:54.388Z,99528.80
2019-05-03T01:06:23.566Z,99526.72
2019-05-03T01:08:52.731Z,99528.97
2019-05-03T01:11:22.457Z,99529.42
2019-05-03T01:13:52.195Z,99529.80
2019-05-03T01:16:22.798Z,99540.45
2019-05-03T01:18:52.306Z,99534.56
2019-05-03T01:21:22.547Z,99527.41
2019-05-03T01:23:52.712Z,99536.30
2019-05-03T01:26:22.805Z,99533.99
2019-05-03T01:28:52.441Z,99534.73
2019-05-03T01:31:22.850Z,99533.89
2019-05-03T01:33:52.285Z,99536.14
2019-05-03T01:36:22.802Z,99538.25
2019-05-03T01:38:52.914Z,99543.46
2019-05-03T01:41:22.405Z,99540.61
2019-05-03T01:43:52.677Z,99542.73
2019-05-03T01:46:22.775Z,99542.56
2019-05-03T01:49:07.540Z,99544.20
2019-05-03T01:52:07.738Z,99546.21
2019-05-03T01:54:37.162Z,99542.73
2019-05-03T01:57:06.407Z,99541.00
2019-05-03T01:59:35.642Z,99544.36
2019-05-03T02:02:13.094Z,99544.20
2019-05-03T02:04:58.428Z,99546.38
2019-05-03T02:07:27.700Z,99553.15
2019-05-03T02:09:56.927Z,99542.18
2019-05-03T02:12:26.138Z,99554.88
2019-05-03T02:14:55.381Z,99547.66
2019-05-03T02:17:24.605Z,99550.17
2019-05-03T02:19:53.830Z,99557.28
2019-05-03T02:22:22.946Z,99551.30
2019-05-03T02:24:52.655Z,99556.61
2019-05-03T02:27:22.015Z,99561.44
2019-05-03T02:29:52.421Z,99557.79
2019-05-03T02:32:23.218Z,99559.58
2019-05-03T02:34:53.522Z,99563.10
2019-05-03T02:37:23.078Z,99566.58
2019-05-03T02:39:56.555Z,99567.70
2019-05-03T02:42:26.518Z,99561.15
2019-05-03T02:44:55.999Z,99561.38
2019-05-03T02:47:42.735Z,99564.00
2019-05-03T02:50:16.657Z,99565.02
2019-05-03T02:52:45.967Z,99562.27
2019-05-03T02:55:16.271Z,99564.28
2019-05-03T02:57:46.713Z,99560.31
2019-05-03T03:00:18.056Z,99565.34
2019-05-03T03:02:47.587Z,99569.78
2019-05-03T03:05:17.063Z,99565.34
2019-05-03T03:07:47.092Z,99566.36
2019-05-03T03:10:17.454Z,99574.07
2019-05-03T03:12:48.828Z,99572.56
2019-05-03T03:15:17.961Z,99567.41
2019-05-03T03:17:48.426Z,99566.45
2019-05-03T03:20:17.926Z,99570.61
2019-05-03T03:22:48.150Z,99571.28
2019-05-03T03:25:25.756Z,99571.67
2019-05-03T03:27:58.470Z,99578.16
2019-05-03T03:30:50.674Z,99574.64
2019-05-03T03:33:19.615Z,99577.55
2019-05-03T03:35:49.602Z,99571.31
2019-05-03T03:38:18.705Z,99577.20
2019-05-03T03:40:48.139Z,99578.25
2019-05-03T03:43:19.023Z,99583.08
2019-05-03T03:45:48.845Z,99581.96
2019-05-03T03:48:20.448Z,99589.19
2019-05-03T03:50:52.152Z,99585.48
2019-05-03T03:53:22.736Z,99588.07
2019-05-03T03:55:56.220Z,99593.16
2019-05-03T03:58:27.121Z,99594.88
2019-05-03T04:00:55.653Z,99591.68
2019-05-03T04:03:26.043Z,99595.58
2019-05-03T04:05:55.744Z,99593.02
2019-05-03T04:08:25.333Z,99595.29
2019-05-03T04:10:55.875Z,99598.27
2019-05-03T04:13:25.862Z,99599.32
2019-05-03T04:16:25.943Z,99598.92
2019-05-03T04:19:02.451Z,99599.77
2019-05-03T04:21:31.552Z,99604.63
2019-05-03T04:24:00.767Z,99604.28
2019-05-03T04:26:30.391Z,99611.91
2019-05-03T04:28:59.603Z,99603.72
2019-05-03T04:31:28.957Z,99602.05
2019-05-03T04:33:58.254Z,99602.67
2019-05-03T04:36:27.427Z,99609.67
2019-05-03T04:38:56.703Z,99614.53
2019-05-03T04:41:26.877Z,99610.22
2019-05-03T04:43:56.286Z,99614.14
2019-05-03T04:46:26.124Z,99621.76
2019-05-03T04:48:56.085Z,99653.88
2019-05-03T04:51:26.174Z,99647.91
2019-05-03T04:54:16.142Z,99655.17
2019-05-03T04:56:46.518Z,99659.30
2019-05-03T04:59:15.932Z,99649.02
2019-05-03T05:01:46.223Z,99663.56
2019-05-03T05:04:16.209Z,99663.94
2019-05-03T05:06:45.621Z,99667.72
2019-05-03T05:09:15.616Z,99674.09
2019-05-03T05:11:45.805Z,99669.48
2019-05-03T05:14:15.527Z,99673.30
2019-05-03T05:16:46.559Z,99670.84
2019-05-03T05:19:19.094Z,99676.01
2019-05-03T05:21:52.639Z,99677.47
2019-05-03T05:24:21.975Z,99673.61
2019-05-03T05:27:14.628Z,99682.98
2019-05-03T05:29:45.064Z,99684.12
2019-05-03T05:32:14.588Z,99688.34
2019-05-03T05:34:45.929Z,99691.15
2019-05-03T05:37:14.996Z,99692.57
2019-05-03T05:39:44.744Z,99691.02
2019-05-03T05:42:14.939Z,99703.00
2019-05-03T05:44:45.420Z,99701.45
2019-05-03T05:47:28.579Z,99709.70
2019-05-03T05:50:16.676Z,99712.38
2019-05-03T05:52:45.796Z,99712.25
2019-05-03T05:55:37.097Z,99720.09
2019-05-03T05:58:25.783Z,99720.51
2019-05-03T06:00:58.768Z,99723.19
2019-05-03T06:03:28.064Z,99729.38
2019-05-03T06:05:59.175Z,99732.57
2019-05-03T06:08:54.730Z,99727.92
2019-05-03T06:11:39.118Z,99740.99
2019-05-03T06:14:30.456Z,99738.23
2019-05-03T06:17:07.792Z,99738.72
2019-05-03T06:19:44.915Z,99742.23
2019-05-03T06:22:21.606Z,99746.06
2019-05-03T06:24:56.642Z,99750.37
2019-05-03T06:27:34.654Z,99748.83
2019-05-03T06:30:11.905Z,99750.16
2019-05-03T06:32:41.845Z,99754.17
2019-05-03T06:35:11.522Z,99760.03
2019-05-03T06:37:45.808Z,99758.44
2019-05-03T06:40:15.160Z,99762.02
2019-05-03T06:42:52.383Z,99766.25
2019-05-03T06:45:15.896Z,99763.77
2019-05-03T06:47:49.461Z,99768.80
2019-05-03T06:50:19.643Z,99768.08
2019-05-03T06:52:47.847Z,99770.61
2019-05-03T06:55:17.149Z,99772.02
2019-05-03T06:57:49.554Z,99771.82
2019-05-03T07:00:50.497Z,99770.38
2019-05-03T07:03:26.124Z,99779.49
2019-05-03T07:06:18.637Z,99776.78
2019-05-03T07:08:59.063Z,99780.45
2019-05-03T07:11:28.238Z,99790.11
2019-05-03T07:13:57.319Z,99795.63
2019-05-03T07:16:26.471Z,99788.48
2019-05-03T07:18:58.134Z,99787.83
2019-05-03T07:21:26.631Z,99789.57
2019-05-03T07:23:55.986Z,99794.83
2019-05-03T07:26:25.528Z,99797.45
2019-05-03T07:28:54.877Z,99791.34
2019-05-03T07:31:25.547Z,99800.67
2019-05-03T07:33:55.443Z,99792.88
2019-05-03T07:36:27.618Z,99791.84
2019-05-03T07:38:55.633Z,99800.31
2019-05-03T07:41:27.146Z,99798.44
2019-05-03T07:43:55.850Z,99799.02
2019-05-03T07:46:24.919Z,99796.03
2019-05-03T07:48:54.834Z,99804.34
2019-05-03T07:51:24.847Z,99806.64
2019-05-03T07:53:55.590Z,99806.58
2019-05-03T07:56:28.975Z,99804.40
2019-05-03T07:59:03.396Z,99801.13
2019-05-03T08:01:38.978Z,99807.86
2019-05-03T08:04:08.083Z,99807.16
2019-05-03T08:06:37.231Z,99805.67
2019-05-03T08:09:08.456Z,99800.63
2019-05-03T08:11:37.892Z,99807.57
2019-05-03T08:14:07.939Z,99806.92
2019-05-03T08:16:37.396Z,99798.20
2019-05-03T08:19:06.463Z,99804.27
2019-05-03T08:21:37.830Z,99806.38
2019-05-03T08:24:06.661Z,99815.03
2019-05-03T08:26:35.697Z,99807.08
2019-05-03T08:29:15.675Z,99803.87
2019-05-03T08:31:55.150Z,99807.36
2019-05-03T08:34:38.258Z,99811.31
2019-05-03T08:37:09.488Z,99812.37
2019-05-03T08:39:38.721Z,99812.28
2019-05-03T08:42:11.752Z,99814.30
2019-05-03T08:44:40.817Z,99817.05
2019-05-03T08:47:09.934Z,99807.38
2019-05-03T08:49:39.121Z,99807.88
2019-05-03T08:52:08.574Z,99809.09
2019-05-03T08:54:37.632Z,99802.18
2019-05-03T08:57:06.727Z,99805.02
2019-05-03T08:59:35.984Z,99806.73
2019-05-03T09:02:13.991Z,99808.47
2019-05-03T09:04:38.587Z,99805.83
2019-05-03T09:07:07.304Z,99798.17
2019-05-03T09:09:54.965Z,99800.02
2019-05-03T09:12:25.208Z,99800.40
2019-05-03T09:14:54.846Z,99799.52
2019-05-03T09:17:24.708Z,99800.28
2019-05-03T09:19:54.820Z,99803.43
2019-05-03T09:22:25.580Z,99800.42
2019-05-03T09:24:54.984Z,99791.17
2019-05-03T09:27:24.816Z,99785.92
2019-05-03T09:29:55.846Z,99787.77
2019-05-03T09:32:25.654Z,99783.03
2019-05-03T09:34:55.152Z,99788.09
2019-05-03T09:37:25.026Z,99788.44
2019-05-03T09:39:55.209Z,99795.22
2019-05-03T09:42:24.911Z,99794.39
2019-05-03T09:44:55.606Z,99796.88
2019-05-03T09:47:25.350Z,99803.20
2019-05-03T09:49:55.851Z,99802.23
2019-05-03T09:52:25.292Z,99801.30
2019-05-03T09:54:56.300Z,99802.36
2019-05-03T09:57:25.980Z,99797.62
2019-05-03T09:59:59.805Z,99796.45
2019-05-03T10:02:26.315Z,99802.58
2019-05-03T10:04:55.545Z,99804.03
2019-05-03T10:07:25.933Z,99800.63
2019-05-03T10:09:55.477Z,99803.33
2019-05-03T10:12:25.676Z,99808.73
2019-05-03T10:14:55.132Z,99799.42
2019-05-03T10:17:45.788Z,99795.70
2019-05-03T10:20:15.490Z,99790.05
2019-05-03T10:22:44.574Z,99794.94
2019-05-03T10:25:13.824Z,99791.86
2019-05-03T10:27:46.202Z,99791.64
2019-05-03T10:30:19.562Z,99790.03
2019-05-03T10:32:54.626Z,99783.80
2019-05-03T10:35:24.681Z,99781.89
2019-05-03T10:37:54.884Z,99787.72
2019-05-03T10:40:46.964Z,99783.27
2019-05-03T10:43:16.213Z,99778.70
2019-05-03T10:45:45.393Z,99767.59
2019-05-03T10:48:16.034Z,99768.75
2019-05-03T10:50:45.552Z,99771.31
2019-05-03T10:53:21.808Z,99767.23
2019-05-03T10:56:13.948Z,99758.61
2019-05-03T10:58:45.587Z,99759.53
2019-05-03T11:01:16.414Z,99759.64
2019-05-03T11:03:45.905Z,99749.91
2019-05-03T11:06:15.310Z,99746.66
2019-05-03T11:08:45.086Z,99742.16
2019-05-03T11:11:15.127Z,99744.70
2019-05-03T11:13:44.361Z,99739.61
2019-05-03T11:16:14.794Z,99736.14
2019-05-03T11:18:45.576Z,99733.69
2019-05-03T11:21:27.721Z,99734.97
2019-05-03T11:23:45.596Z,99733.87
2019-05-03T11:26:14.851Z,99730.97
2019-05-03T11:28:44.891Z,99731.65
2019-05-03T11:31:31.805Z,99719.70
2019-05-03T11:34:02.766Z,99724.94
2019-05-03T11:36:54.937Z,99724.67
2019-05-03T11:39:25.056Z,99699.73
2019-05-03T11:41:56.997Z,99720.76
2019-05-03T11:44:38.422Z,99713.96
2019-05-03T11:47:07.960Z,99715.31
2019-05-03T11:49:37.297Z,99714.23
2019-05-03T11:52:06.788Z,99706.41
2019-05-03T11:54:36.171Z,99713.75
2019-05-03T11:57:10.702Z,99712.81
2019-05-03T11:59:42.015Z,99714.26
2019-05-03T12:02:30.203Z,99714.75
2019-05-03T12:05:00.480Z,99712.14
2019-05-03T12:07:39.534Z,99715.07
2019-05-03T12:10:13.891Z,99715.98
2019-05-03T12:12:37.815Z,99716.88
2019-05-03T12:15:07.054Z,99719.54
2019-05-03T12:17:50.823Z,99717.14
2019-05-03T12:20:13.580Z,99717.43
2019-05-03T12:22:43.725Z,99709.13
2019-05-03T12:25:16.705Z,99705.14
2019-05-03T12:27:45.532Z,99716.26
2019-05-03T12:30:15.335Z,99713.78
2019-05-03T12:32:44.791Z,99704.17
2019-05-03T12:35:15.395Z,99702.94
2019-05-03T12:37:44.738Z,99710.35
2019-05-03T12:40:14.954Z,99699.73
2019-05-03T12:42:45.489Z,99697.33
2019-05-03T12:45:15.324Z,99705.13
2019-05-03T12:47:45.484Z,99702.59
2019-05-03T12:50:15.697Z,99698.28
2019-05-03T12:52:50.403Z,99697.64
2019-05-03T12:55:16.024Z,99704.53
2019-05-03T12:57:45.883Z,99703.17
2019-05-03T13:00:48.640Z,99697.64
2019-05-03T13:03:24.636Z,99696.78
2019-05-03T13:05:55.596Z,99698.48
2019-05-03T13:08:35.680Z,99691.26
2019-05-03T13:11:05.535Z,99698.53
2019-05-03T13:13:35.855Z,99688.83
2019-05-03T13:16:06.136Z,99683.48
2019-05-03T13:18:35.589Z,99678.23
2019-05-03T13:21:05.995Z,99673.32
2019-05-03T13:23:35.903Z,99676.73
2019-05-03T13:26:08.673Z,99673.59
2019-05-03T13:28:37.914Z,99673.31
2019-05-03T13:31:07.962Z,99667.08
2019-05-03T13:33:37.363Z,99669.47
2019-05-03T13:36:06.937Z,99666.19
2019-05-03T13:38:36.238Z,99669.41
2019-05-03T13:41:06.834Z,99667.79
2019-05-03T13:43:36.350Z,99670.52
2019-05-03T13:46:05.913Z,99662.97
2019-05-03T13:48:45.296Z,99665.36
2019-05-03T13:51:06.053Z,99670.25
2019-05-03T13:53:35.222Z,99667.36
2019-05-03T13:56:04.941Z,99677.05
2019-05-03T13:58:35.783Z,99669.95
2019-05-03T14:01:05.795Z,99668.22
2019-05-03T14:03:35.293Z,99664.34
2019-05-03T14:06:08.656Z,99661.25
2019-05-03T14:08:36.223Z,99662.16
2019-05-03T14:11:05.479Z,99658.27
2019-05-03T14:13:35.408Z,99651.67
2019-05-03T14:16:05.765Z,99646.88
2019-05-03T14:18:35.480Z,99648.64
2019-05-03T14:21:39.239Z,99651.78
2019-05-03T14:24:13.222Z,99650.34
2019-05-03T14:26:44.784Z,99653.23
2019-05-03T14:29:14.904Z,99655.57
2019-05-03T14:31:45.334Z,99654.61
2019-05-03T14:34:17.108Z,99661.77
2019-05-03T14:36:45.532Z,99662.85
2019-05-03T14:39:15.148Z,99660.02
2019-05-03T14:41:46.774Z,99664.41
2019-05-03T14:44:17.859Z,99665.10
2019-05-03T14:46:46.282Z,99658.94
2019-05-03T14:49:15.447Z,99653.22
2019-05-03T14:51:45.557Z,99644.81
2019-05-03T14:54:15.755Z,99640.86
2019-05-03T14:57:06.918Z,99639.23
2019-05-03T15:00:16.957Z,99633.21
2019-05-03T15:03:08.895Z,99632.91
2019-05-03T15:05:38.040Z,99628.37
2019-05-03T15:08:07.620Z,99634.02
2019-05-03T15:10:37.045Z,99630.66
2019-05-03T15:13:06.279Z,99628.27
2019-05-03T15:15:36.269Z,99628.09
2019-05-03T15:18:05.964Z,99638.20
2019-05-03T15:20:35.107Z,99630.95
2019-05-03T15:23:05.509Z,99637.71
2019-05-03T15:25:34.837Z,99624.52
2019-05-03T15:28:05.044Z,99627.28
2019-05-03T15:30:35.370Z,99628.73
2019-05-03T15:33:05.265Z,99628.79
2019-05-03T15:35:35.132Z,99627.53
2019-05-03T15:38:05.543Z,99622.25
2019-05-03T15:40:34.814Z,99629.04
2019-05-03T15:43:19.481Z,99622.55
2019-05-03T15:45:56.170Z,99620.98
2019-05-03T15:48:28.030Z,99624.05
2019-05-03T15:50:57.161Z,99612.39
2019-05-03T15:53:28.090Z,99611.95
2019-05-03T15:55:57.243Z,99610.16
2019-05-03T15:58:26.565Z,99620.23
2019-05-03T16:00:55.707Z,99613.23
2019-05-03T16:03:25.352Z,99613.14
2019-05-03T16:05:55.658Z,99611.79
2019-05-03T16:08:25.215Z,99612.51
2019-05-03T16:10:54.872Z,99604.09
2019-05-03T16:13:25.293Z,99607.66
2019-05-03T16:15:55.362Z,99606.00
2019-05-03T16:18:24.757Z,99604.13
2019-05-03T16:20:54.614Z,99605.95
2019-05-03T16:23:25.234Z,99606.11
2019-05-03T16:25:54.643Z,99607.30
2019-05-03T16:28:46.062Z,99611.62
2019-05-03T16:31:16.246Z,99609.01
2019-05-03T16:33:45.788Z,99606.70
2019-05-03T16:36:15.003Z,99601.55
2019-05-03T16:38:44.897Z,99602.32
2019-05-03T16:41:17.441Z,99601.98
2019-05-03T16:43:45.702Z,99604.69
2019-05-03T16:46:14.848Z,99597.35
2019-05-03T16:48:44.798Z,99590.41
2019-05-03T16:51:15.042Z,99596.06
2019-05-03T16:53:45.194Z,99597.41
2019-05-03T16:56:16.569Z,99594.84
2019-05-03T16:58:45.769Z,99592.47
2019-05-03T17:01:17.899Z,99590.78
2019-05-03T17:03:50.998Z,99600.76
2019-05-03T17:06:39.454Z,99595.88
2019-05-03T17:09:18.166Z,99597.53
2019-05-03T17:12:06.229Z,99601.28
2019-05-03T17:14:35.865Z,99599.80
2019-05-03T17:17:07.267Z,99607.79
2019-05-03T17:19:36.202Z,99608.73
2019-05-03T17:22:05.784Z,99610.51
2019-05-03T17:24:35.398Z,99614.01
2019-05-03T17:27:05.085Z,99607.64
2019-05-03T17:29:35.109Z,99610.91
2019-05-03T17:32:04.933Z,99614.17
2019-05-03T17:34:34.746Z,99613.31
2019-05-03T17:37:04.964Z,99608.20
2019-05-03T17:39:54.733Z,99618.26
2019-05-03T17:42:42.904Z,99605.77
2019-05-03T17:45:14.704Z,99605.28
2019-05-03T17:47:45.443Z,99610.85
2019-05-03T17:50:14.862Z,99605.34
2019-05-03T17:53:02.885Z,99609.03
2019-05-03T17:55:42.140Z,99611.91
2019-05-03T17:58:30.351Z,99610.33
2019-05-03T18:01:13.406Z,99616.55
2019-05-03T18:03:44.978Z,99609.50
2019-05-03T18:06:21.032Z,99609.73
2019-05-03T18:08:59.282Z,99615.02
2019-05-03T18:11:34.637Z,99613.03
2019-05-03T18:14:05.550Z,99614.09
2019-05-03T18:16:35.093Z,99615.07
2019-05-03T18:19:05.217Z,99608.94
2019-05-03T18:21:34.749Z,99618.59
2019-05-03T18:24:04.951Z,99619.02
2019-05-03T18:26:35.541Z,99619.39
2019-05-03T18:29:05.797Z,99620.59
2019-05-03T18:31:35.024Z,99618.70
2019-05-03T18:34:05.176Z,99623.44
2019-05-03T18:36:35.099Z,99624.20
2019-05-03T18:39:06.766Z,99623.41
2019-05-03T18:41:35.941Z,99623.66
2019-05-03T18:44:21.045Z,99618.20
2019-05-03T18:46:55.064Z,99617.99
2019-05-03T18:49:24.862Z,99613.59
2019-05-03T18:51:55.392Z,99623.91
2019-05-03T18:54:25.143Z,99620.28
2019-05-03T18:56:55.749Z,99620.16
2019-05-03T18:59:25.232Z,99625.84
2019-05-03T19:01:55.191Z,99631.17
2019-05-03T19:04:35.785Z,99635.82
2019-05-03T19:07:07.383Z,99632.15
2019-05-03T19:09:49.501Z,99636.63
2019-05-03T19:12:40.776Z,99635.22
2019-05-03T19:15:11.401Z,99640.92
2019-05-03T19:18:04.366Z,99644.42
2019-05-03T19:20:35.235Z,99645.25
2019-05-03T19:23:05.042Z,99641.15
2019-05-03T19:25:45.807Z,99641.08
2019-05-03T19:28:07.899Z,99642.78
2019-05-03T19:30:38.861Z,99637.53
2019-05-03T19:33:09.072Z,99644.14
2019-05-03T19:35:38.514Z,99644.30
2019-05-03T19:38:07.862Z,99648.02
2019-05-03T19:40:37.125Z,99644.13
2019-05-03T19:43:06.241Z,99647.26
2019-05-03T19:45:35.480Z,99647.38
2019-05-03T19:48:04.730Z,99651.28
2019-05-03T19:50:35.300Z,99648.20
2019-05-03T19:53:17.505Z,99647.23
2019-05-03T19:55:50.373Z,99652.05
2019-05-03T19:58:17.957Z,99645.86
2019-05-03T20:01:12.127Z,99643.39
2019-05-03T20:03:48.333Z,99654.27
2019-05-03T20:06:25.239Z,99652.60
2019-05-03T20:08:59.509Z,99644.66
2019-05-03T20:11:28.895Z,99648.58
2019-05-03T20:13:58.264Z,99641.94
2019-05-03T20:16:27.375Z,99646.36
2019-05-03T20:18:56.529Z,99638.09
2019-05-03T20:21:25.834Z,99639.73
2019-05-03T20:23:55.517Z,99638.82
2019-05-03T20:26:25.381Z,99640.05
2019-05-03T20:28:55.349Z,99634.94
2019-05-03T20:31:25.291Z,99634.21
2019-05-03T20:33:56.152Z,99634.42
2019-05-03T20:36:25.466Z,99637.00
2019-05-03T20:38:55.090Z,99634.50
2019-05-03T20:41:27.521Z,99631.39
2019-05-03T20:44:18.567Z,99639.14
2019-05-03T20:46:57.928Z,99631.17
2019-05-03T20:49:27.135Z,99626.05
2019-05-03T20:51:56.485Z,99628.19
2019-05-03T20:54:25.561Z,99626.63
2019-05-03T20:56:54.890Z,99622.25
2019-05-03T20:59:25.337Z,99624.82
2019-05-03T21:01:54.676Z,99625.69
2019-05-03T21:04:24.698Z,99622.02
2019-05-03T21:06:55.197Z,99621.84
2019-05-03T21:09:24.876Z,99623.17
2019-05-03T21:11:55.158Z,99627.13
2019-05-03T21:14:24.544Z,99627.97
2019-05-03T21:17:15.963Z,99626.13
2019-05-03T21:19:56.883Z,99621.80
2019-05-03T21:22:38.947Z,99629.31
2019-05-03T21:25:16.600Z,99628.14
2019-05-03T21:27:45.875Z,99633.72
2019-05-03T21:30:17.092Z,99628.47
2019-05-03T21:32:46.233Z,99623.56
2019-05-03T21:35:15.568Z,99620.08
2019-05-03T21:37:45.390Z,99619.33
2019-05-03T21:40:15.646Z,99617.52
2019-05-03T21:42:45.301Z,99616.56
2019-05-03T21:45:16.237Z,99609.86
2019-05-03T21:48:14.649Z,99611.23
2019-05-03T21:50:44.723Z,99612.22
2019-05-03T21:53:14.726Z,99609.25
2019-05-03T21:55:44.877Z,99613.48
2019-05-03T21:58:16.143Z,99613.48
2019-05-03T22:00:54.661Z,99611.23
2019-05-03T22:03:25.300Z,99607.42
2019-05-03T22:05:57.852Z,99612.06
2019-05-03T22:08:25.338Z,99605.73
2019-05-03T22:10:55.480Z,99606.56
2019-05-03T22:13:24.791Z,99607.21
2019-05-03T22:15:58.863Z,99603.22
2019-05-03T22:18:29.824Z,99600.64
2019-05-03T22:21:05.532Z,99599.81
2019-05-03T22:23:56.603Z,99600.02
2019-05-03T22:26:45.260Z,99594.10
2019-05-03T22:29:17.233Z,99595.23
2019-05-03T22:31:46.026Z,99591.33
2019-05-03T22:34:15.249Z,99586.19
2019-05-03T22:36:44.606Z,99580.61
2019-05-03T22:39:15.662Z,99579.55
2019-05-03T22:41:44.561Z,99587.16
2019-05-03T22:44:16.818Z,99587.93
2019-05-03T22:46:44.976Z,99580.28
2019-05-03T22:49:15.591Z,99586.92
2019-05-03T22:51:45.155Z,99582.98
2019-05-03T22:54:15.367Z,99569.93
2019-05-03T22:56:45.007Z,99569.23
2019-05-03T22:59:14.879Z,99575.30
2019-05-03T23:01:45.771Z,99567.68
2019-05-03T23:04:15.796Z,99567.72
2019-05-03T23:06:47.107Z,99561.95
2019-05-03T23:09:16.085Z,99556.02
2019-05-03T23:11:45.189Z,99555.36
2019-05-03T23:14:15.170Z,99543.87
2019-05-03T23:16:44.964Z,99548.59
2019-05-03T23:19:15.139Z,99544.02
2019-05-03T23:21:54.463Z,99543.91
2019-05-03T23:24:24.750Z,99537.49
2019-05-03T23:26:53.888Z,99534.81
2019-05-03T23:29:23.239Z,99534.95
2019-05-03T23:31:52.322Z,99528.91
2019-05-03T23:34:21.733Z,99528.50
2019-05-03T23:36:50.849Z,99527.78
2019-05-03T23:39:20.129Z,99517.86
2019-05-03T23:41:51.443Z,99515.75
2019-05-03T23:44:20.554Z,99512.81
2019-05-03T23:46:59.920Z,99507.56
2019-05-03T23:49:30.877Z,99501.08
2019-05-03T23:52:04.508Z,99504.19
2019-05-03T23:54:33.657Z,99490.64
2019-05-03T23:57:02.796Z,99489.59
2019-05-03T23:59:32.041Z,99477.89
